sensor_id;sensor_type;location;lat;lon;timestamp;P1;durP1;ratioP1;P2;durP2;ratioP2
1567;SDS011;777;47.156;8.326;2023-03-31T00:01:08;11.05;;;5.80;;
1567;SDS011;777;47.156;8.326;2023-03-31T00:03:35;8.75;;;5.57;;
1567;SDS011;777;47.156;8.326;2023-03-31T00:06:08;11.10;;;6.28;;
1567;SDS011;777;47.156;8.326;2023-03-31T00:08:42;7.47;;;6.07;;
1567;SDS011;777;47.156;8.326;2023-03-31T00:11:09;9.70;;;6.13;;
1567;SDS011;777;47.156;8.326;2023-03-31T00:13:38;9.52;;;6.35;;
1567;SDS011;777;47.156;8.326;2023-03-31T00:16:07;9.05;;;6.10;;
1567;SDS011;777;47.156;8.326;2023-03-31T00:18:35;8.63;;;6.60;;
1567;SDS011;777;47.156;8.326;2023-03-31T00:21:05;7.32;;;6.32;;
1567;SDS011;777;47.156;8.326;2023-03-31T00:23:34;9.75;;;6.60;;
1567;SDS011;777;47.156;8.326;2023-03-31T00:26:00;10.43;;;6.80;;
1567;SDS011;777;47.156;8.326;2023-03-31T00:28:27;11.48;;;6.50;;
1567;SDS011;777;47.156;8.326;2023-03-31T00:30:59;8.88;;;6.43;;
1567;SDS011;777;47.156;8.326;2023-03-31T00:33:27;12.18;;;6.47;;
1567;SDS011;777;47.156;8.326;2023-03-31T00:35:54;9.95;;;6.45;;
1567;SDS011;777;47.156;8.326;2023-03-31T00:38:26;11.02;;;6.03;;
1567;SDS011;777;47.156;8.326;2023-03-31T00:40:54;11.02;;;6.68;;
1567;SDS011;777;47.156;8.326;2023-03-31T00:43:28;9.18;;;6.10;;
1567;SDS011;777;47.156;8.326;2023-03-31T00:46:01;12.13;;;6.28;;
1567;SDS011;777;47.156;8.326;2023-03-31T00:48:33;9.43;;;6.57;;
1567;SDS011;777;47.156;8.326;2023-03-31T00:51:03;9.43;;;6.85;;
1567;SDS011;777;47.156;8.326;2023-03-31T00:53:31;9.52;;;6.03;;
1567;SDS011;777;47.156;8.326;2023-03-31T00:56:03;11.32;;;6.70;;
1567;SDS011;777;47.156;8.326;2023-03-31T00:58:34;9.18;;;6.78;;
1567;SDS011;777;47.156;8.326;2023-03-31T01:01:09;7.78;;;5.63;;
1567;SDS011;777;47.156;8.326;2023-03-31T01:03:40;9.55;;;6.03;;
1567;SDS011;777;47.156;8.326;2023-03-31T01:06:11;9.88;;;6.80;;
1567;SDS011;777;47.156;8.326;2023-03-31T01:08:43;11.45;;;6.18;;
1567;SDS011;777;47.156;8.326;2023-03-31T01:11:13;7.38;;;5.50;;
1567;SDS011;777;47.156;8.326;2023-03-31T01:13:42;7.85;;;5.75;;
1567;SDS011;777;47.156;8.326;2023-03-31T01:16:11;8.77;;;5.32;;
1567;SDS011;777;47.156;8.326;2023-03-31T01:18:38;10.50;;;5.05;;
1567;SDS011;777;47.156;8.326;2023-03-31T01:27:36;8.05;;;5.57;;
1567;SDS011;777;47.156;8.326;2023-03-31T01:33:25;8.82;;;4.95;;
1567;SDS011;777;47.156;8.326;2023-03-31T01:36:42;9.10;;;5.82;;
1567;SDS011;777;47.156;8.326;2023-03-31T01:42:35;7.35;;;5.25;;
1567;SDS011;777;47.156;8.326;2023-03-31T01:45:08;9.50;;;5.85;;
1567;SDS011;777;47.156;8.326;2023-03-31T01:47:45;6.55;;;5.55;;
1567;SDS011;777;47.156;8.326;2023-03-31T01:50:21;7.57;;;5.35;;
1567;SDS011;777;47.156;8.326;2023-03-31T01:55:25;10.50;;;5.68;;
1567;SDS011;777;47.156;8.326;2023-03-31T01:57:58;10.00;;;5.70;;
1567;SDS011;777;47.156;8.326;2023-03-31T02:00:32;7.90;;;5.15;;
1567;SDS011;777;47.156;8.326;2023-03-31T02:03:05;9.00;;;5.10;;
1567;SDS011;777;47.156;8.326;2023-03-31T02:05:37;6.65;;;5.07;;
1567;SDS011;777;47.156;8.326;2023-03-31T02:08:09;6.40;;;5.20;;
1567;SDS011;777;47.156;8.326;2023-03-31T02:10:41;10.48;;;5.40;;
1567;SDS011;777;47.156;8.326;2023-03-31T02:13:10;9.02;;;5.32;;
1567;SDS011;777;47.156;8.326;2023-03-31T02:15:41;7.55;;;5.15;;
1567;SDS011;777;47.156;8.326;2023-03-31T02:18:15;6.85;;;5.30;;
1567;SDS011;777;47.156;8.326;2023-03-31T02:20:47;10.45;;;5.18;;
1567;SDS011;777;47.156;8.326;2023-03-31T02:23:16;8.32;;;4.85;;
1567;SDS011;777;47.156;8.326;2023-03-31T02:25:49;8.07;;;4.90;;
1567;SDS011;777;47.156;8.326;2023-03-31T02:28:19;9.00;;;5.50;;
1567;SDS011;777;47.156;8.326;2023-03-31T02:30:50;8.13;;;4.45;;
1567;SDS011;777;47.156;8.326;2023-03-31T02:33:23;7.00;;;4.97;;
1567;SDS011;777;47.156;8.326;2023-03-31T02:35:50;8.25;;;5.20;;
1567;SDS011;777;47.156;8.326;2023-03-31T02:38:18;7.53;;;5.20;;
1567;SDS011;777;47.156;8.326;2023-03-31T02:40:45;9.52;;;5.25;;
1567;SDS011;777;47.156;8.326;2023-03-31T02:43:14;7.40;;;4.95;;
1567;SDS011;777;47.156;8.326;2023-03-31T02:45:42;7.40;;;5.55;;
1567;SDS011;777;47.156;8.326;2023-03-31T02:48:12;7.72;;;5.38;;
1567;SDS011;777;47.156;8.326;2023-03-31T02:53:41;8.50;;;5.35;;
1567;SDS011;777;47.156;8.326;2023-03-31T02:56:23;7.43;;;4.90;;
1567;SDS011;777;47.156;8.326;2023-03-31T02:59:09;9.15;;;5.60;;
1567;SDS011;777;47.156;8.326;2023-03-31T03:01:48;8.15;;;5.40;;
1567;SDS011;777;47.156;8.326;2023-03-31T03:04:26;9.07;;;5.40;;
1567;SDS011;777;47.156;8.326;2023-03-31T03:07:09;9.70;;;5.57;;
1567;SDS011;777;47.156;8.326;2023-03-31T03:09:44;8.18;;;5.40;;
1567;SDS011;777;47.156;8.326;2023-03-31T03:12:21;9.85;;;5.53;;
1567;SDS011;777;47.156;8.326;2023-03-31T03:14:54;9.23;;;5.60;;
1567;SDS011;777;47.156;8.326;2023-03-31T03:17:25;6.93;;;4.85;;
1567;SDS011;777;47.156;8.326;2023-03-31T03:19:56;7.47;;;5.93;;
1567;SDS011;777;47.156;8.326;2023-03-31T03:22:25;10.90;;;5.57;;
1567;SDS011;777;47.156;8.326;2023-03-31T03:24:52;8.38;;;5.13;;
1567;SDS011;777;47.156;8.326;2023-03-31T03:27:21;6.68;;;4.90;;
1567;SDS011;777;47.156;8.326;2023-03-31T03:29:48;9.15;;;5.38;;
1567;SDS011;777;47.156;8.326;2023-03-31T03:32:15;8.63;;;5.68;;
1567;SDS011;777;47.156;8.326;2023-03-31T03:34:42;8.73;;;5.15;;
1567;SDS011;777;47.156;8.326;2023-03-31T03:37:09;8.00;;;5.05;;
1567;SDS011;777;47.156;8.326;2023-03-31T03:39:36;8.57;;;5.18;;
1567;SDS011;777;47.156;8.326;2023-03-31T03:42:03;8.50;;;5.30;;
1567;SDS011;777;47.156;8.326;2023-03-31T03:44:32;10.20;;;5.30;;
1567;SDS011;777;47.156;8.326;2023-03-31T03:46:59;8.40;;;5.60;;
1567;SDS011;777;47.156;8.326;2023-03-31T03:49:26;6.75;;;5.10;;
1567;SDS011;777;47.156;8.326;2023-03-31T03:51:52;7.00;;;5.00;;
1567;SDS011;777;47.156;8.326;2023-03-31T03:54:19;9.25;;;5.60;;
1567;SDS011;777;47.156;8.326;2023-03-31T03:56:46;6.65;;;4.90;;
1567;SDS011;777;47.156;8.326;2023-03-31T03:59:13;8.77;;;5.43;;
1567;SDS011;777;47.156;8.326;2023-03-31T04:01:42;7.70;;;5.10;;
1567;SDS011;777;47.156;8.326;2023-03-31T04:04:09;9.05;;;5.13;;
1567;SDS011;777;47.156;8.326;2023-03-31T04:06:36;10.30;;;4.97;;
1567;SDS011;777;47.156;8.326;2023-03-31T04:09:03;9.73;;;5.15;;
1567;SDS011;777;47.156;8.326;2023-03-31T04:11:30;8.07;;;4.10;;
1567;SDS011;777;47.156;8.326;2023-03-31T04:13:57;9.20;;;4.50;;
1567;SDS011;777;47.156;8.326;2023-03-31T04:16:24;7.05;;;3.60;;
1567;SDS011;777;47.156;8.326;2023-03-31T04:18:53;5.75;;;3.50;;
1567;SDS011;777;47.156;8.326;2023-03-31T04:21:21;7.50;;;3.67;;
1567;SDS011;777;47.156;8.326;2023-03-31T04:23:49;6.25;;;4.00;;
1567;SDS011;777;47.156;8.326;2023-03-31T04:26:23;6.15;;;3.85;;
1567;SDS011;777;47.156;8.326;2023-03-31T04:28:55;7.65;;;4.20;;
1567;SDS011;777;47.156;8.326;2023-03-31T04:31:24;7.53;;;4.63;;
1567;SDS011;777;47.156;8.326;2023-03-31T04:33:56;9.05;;;4.13;;
1567;SDS011;777;47.156;8.326;2023-03-31T04:36:26;7.90;;;4.20;;
1567;SDS011;777;47.156;8.326;2023-03-31T04:38:55;6.40;;;4.68;;
1567;SDS011;777;47.156;8.326;2023-03-31T04:41:23;6.95;;;4.07;;
1567;SDS011;777;47.156;8.326;2023-03-31T04:43:51;8.35;;;4.70;;
1567;SDS011;777;47.156;8.326;2023-03-31T04:46:18;9.88;;;4.63;;
1567;SDS011;777;47.156;8.326;2023-03-31T04:48:45;5.40;;;4.55;;
1567;SDS011;777;47.156;8.326;2023-03-31T04:51:13;7.80;;;4.25;;
1567;SDS011;777;47.156;8.326;2023-03-31T04:53:40;7.75;;;3.80;;
1567;SDS011;777;47.156;8.326;2023-03-31T04:56:07;4.82;;;3.70;;
1567;SDS011;777;47.156;8.326;2023-03-31T04:58:34;9.30;;;3.42;;
1567;SDS011;777;47.156;8.326;2023-03-31T05:01:01;6.72;;;3.28;;
1567;SDS011;777;47.156;8.326;2023-03-31T05:03:30;7.70;;;4.25;;
1567;SDS011;777;47.156;8.326;2023-03-31T05:05:57;6.57;;;3.90;;
1567;SDS011;777;47.156;8.326;2023-03-31T05:08:25;9.48;;;4.10;;
1567;SDS011;777;47.156;8.326;2023-03-31T05:10:52;6.78;;;3.65;;
1567;SDS011;777;47.156;8.326;2023-03-31T05:13:19;6.90;;;3.60;;
1567;SDS011;777;47.156;8.326;2023-03-31T05:15:46;7.35;;;4.28;;
1567;SDS011;777;47.156;8.326;2023-03-31T05:18:15;8.00;;;3.58;;
1567;SDS011;777;47.156;8.326;2023-03-31T05:20:42;7.72;;;3.88;;
1567;SDS011;777;47.156;8.326;2023-03-31T05:23:09;8.35;;;4.05;;
1567;SDS011;777;47.156;8.326;2023-03-31T05:25:37;6.53;;;3.47;;
1567;SDS011;777;47.156;8.326;2023-03-31T05:28:06;7.03;;;3.70;;
1567;SDS011;777;47.156;8.326;2023-03-31T05:30:34;6.13;;;3.50;;
1567;SDS011;777;47.156;8.326;2023-03-31T05:33:00;5.53;;;3.50;;
1567;SDS011;777;47.156;8.326;2023-03-31T05:35:27;8.85;;;3.17;;
1567;SDS011;777;47.156;8.326;2023-03-31T05:37:55;6.63;;;3.60;;
1567;SDS011;777;47.156;8.326;2023-03-31T05:40:21;7.72;;;3.20;;
1567;SDS011;777;47.156;8.326;2023-03-31T05:42:50;7.13;;;3.53;;
1567;SDS011;777;47.156;8.326;2023-03-31T05:45:17;5.63;;;3.67;;
1567;SDS011;777;47.156;8.326;2023-03-31T05:47:44;7.20;;;3.58;;
1567;SDS011;777;47.156;8.326;2023-03-31T05:50:11;6.10;;;3.38;;
1567;SDS011;777;47.156;8.326;2023-03-31T05:52:37;7.15;;;3.53;;
1567;SDS011;777;47.156;8.326;2023-03-31T05:55:05;7.50;;;3.67;;
1567;SDS011;777;47.156;8.326;2023-03-31T05:57:32;7.53;;;3.70;;
1567;SDS011;777;47.156;8.326;2023-03-31T06:00:00;5.78;;;3.25;;
1567;SDS011;777;47.156;8.326;2023-03-31T06:02:29;8.07;;;3.97;;
1567;SDS011;777;47.156;8.326;2023-03-31T06:04:58;6.00;;;3.65;;
1567;SDS011;777;47.156;8.326;2023-03-31T06:07:25;9.73;;;4.38;;
1567;SDS011;777;47.156;8.326;2023-03-31T06:09:51;5.50;;;3.25;;
1567;SDS011;777;47.156;8.326;2023-03-31T06:12:18;6.88;;;3.38;;
1567;SDS011;777;47.156;8.326;2023-03-31T06:14:45;5.30;;;3.15;;
1567;SDS011;777;47.156;8.326;2023-03-31T06:17:13;7.50;;;3.38;;
1567;SDS011;777;47.156;8.326;2023-03-31T06:19:40;6.80;;;3.25;;
1567;SDS011;777;47.156;8.326;2023-03-31T06:22:07;5.57;;;3.17;;
1567;SDS011;777;47.156;8.326;2023-03-31T06:24:34;6.32;;;3.08;;
1567;SDS011;777;47.156;8.326;2023-03-31T06:27:01;7.63;;;3.13;;
1567;SDS011;777;47.156;8.326;2023-03-31T06:29:28;14.15;;;4.07;;
1567;SDS011;777;47.156;8.326;2023-03-31T06:31:55;7.13;;;3.35;;
1567;SDS011;777;47.156;8.326;2023-03-31T06:34:23;8.68;;;3.55;;
1567;SDS011;777;47.156;8.326;2023-03-31T06:36:50;6.63;;;3.15;;
1567;SDS011;777;47.156;8.326;2023-03-31T06:39:17;7.15;;;3.20;;
1567;SDS011;777;47.156;8.326;2023-03-31T06:41:44;5.88;;;3.17;;
1567;SDS011;777;47.156;8.326;2023-03-31T06:44:18;9.80;;;3.22;;
1567;SDS011;777;47.156;8.326;2023-03-31T06:46:47;7.82;;;3.00;;
1567;SDS011;777;47.156;8.326;2023-03-31T06:49:14;6.63;;;3.10;;
1567;SDS011;777;47.156;8.326;2023-03-31T06:51:42;6.65;;;3.50;;
1567;SDS011;777;47.156;8.326;2023-03-31T06:54:09;5.57;;;2.92;;
1567;SDS011;777;47.156;8.326;2023-03-31T06:56:36;8.02;;;2.90;;
1567;SDS011;777;47.156;8.326;2023-03-31T06:59:03;5.97;;;3.03;;
1567;SDS011;777;47.156;8.326;2023-03-31T07:01:30;6.47;;;3.35;;
1567;SDS011;777;47.156;8.326;2023-03-31T07:04:01;6.75;;;3.55;;
1567;SDS011;777;47.156;8.326;2023-03-31T07:06:29;7.70;;;3.38;;
1567;SDS011;777;47.156;8.326;2023-03-31T07:08:57;8.40;;;4.15;;
1567;SDS011;777;47.156;8.326;2023-03-31T07:11:24;5.63;;;3.65;;
1567;SDS011;777;47.156;8.326;2023-03-31T07:13:51;8.30;;;4.03;;
1567;SDS011;777;47.156;8.326;2023-03-31T07:16:18;11.63;;;3.83;;
1567;SDS011;777;47.156;8.326;2023-03-31T07:18:45;7.30;;;3.90;;
1567;SDS011;777;47.156;8.326;2023-03-31T07:21:12;9.27;;;4.38;;
1567;SDS011;777;47.156;8.326;2023-03-31T07:23:39;6.22;;;3.47;;
1567;SDS011;777;47.156;8.326;2023-03-31T07:26:07;7.85;;;4.80;;
1567;SDS011;777;47.156;8.326;2023-03-31T07:28:35;6.97;;;4.13;;
1567;SDS011;777;47.156;8.326;2023-03-31T07:31:02;9.45;;;4.63;;
1567;SDS011;777;47.156;8.326;2023-03-31T07:36:03;7.80;;;4.10;;
1567;SDS011;777;47.156;8.326;2023-03-31T07:41:42;8.18;;;4.40;;
1567;SDS011;777;47.156;8.326;2023-03-31T07:44:09;7.15;;;4.47;;
1567;SDS011;777;47.156;8.326;2023-03-31T07:46:36;10.73;;;5.10;;
1567;SDS011;777;47.156;8.326;2023-03-31T07:49:03;8.35;;;4.80;;
1567;SDS011;777;47.156;8.326;2023-03-31T07:51:31;8.10;;;5.18;;
1567;SDS011;777;47.156;8.326;2023-03-31T07:53:58;10.27;;;5.40;;
1567;SDS011;777;47.156;8.326;2023-03-31T07:56:25;8.18;;;5.07;;
1567;SDS011;777;47.156;8.326;2023-03-31T07:58:54;7.10;;;4.88;;
1567;SDS011;777;47.156;8.326;2023-03-31T08:01:21;8.45;;;5.65;;
1567;SDS011;777;47.156;8.326;2023-03-31T08:03:50;10.13;;;5.65;;
1567;SDS011;777;47.156;8.326;2023-03-31T08:09:04;8.85;;;5.72;;
1567;SDS011;777;47.156;8.326;2023-03-31T08:11:32;9.95;;;5.60;;
1567;SDS011;777;47.156;8.326;2023-03-31T08:14:01;12.02;;;5.85;;
1567;SDS011;777;47.156;8.326;2023-03-31T08:16:28;11.80;;;5.38;;
1567;SDS011;777;47.156;8.326;2023-03-31T08:18:54;10.95;;;5.53;;
1567;SDS011;777;47.156;8.326;2023-03-31T08:21:21;13.32;;;6.20;;
1567;SDS011;777;47.156;8.326;2023-03-31T08:23:48;12.32;;;6.05;;
1567;SDS011;777;47.156;8.326;2023-03-31T08:26:18;11.10;;;5.82;;
1567;SDS011;777;47.156;8.326;2023-03-31T08:28:46;10.40;;;5.85;;
1567;SDS011;777;47.156;8.326;2023-03-31T08:31:15;9.68;;;5.57;;
1567;SDS011;777;47.156;8.326;2023-03-31T08:33:43;11.52;;;5.05;;
1567;SDS011;777;47.156;8.326;2023-03-31T08:36:10;8.13;;;5.05;;
1567;SDS011;777;47.156;8.326;2023-03-31T08:38:38;11.82;;;4.53;;
1567;SDS011;777;47.156;8.326;2023-03-31T08:41:09;7.50;;;3.92;;
1567;SDS011;777;47.156;8.326;2023-03-31T08:43:51;7.80;;;3.95;;
1567;SDS011;777;47.156;8.326;2023-03-31T08:46:22;8.23;;;4.65;;
1567;SDS011;777;47.156;8.326;2023-03-31T08:48:51;7.85;;;4.03;;
1567;SDS011;777;47.156;8.326;2023-03-31T08:51:21;8.30;;;4.03;;
1567;SDS011;777;47.156;8.326;2023-03-31T08:53:54;7.63;;;4.50;;
1567;SDS011;777;47.156;8.326;2023-03-31T08:56:27;6.38;;;3.78;;
1567;SDS011;777;47.156;8.326;2023-03-31T08:58:55;8.55;;;4.20;;
1567;SDS011;777;47.156;8.326;2023-03-31T09:01:30;6.78;;;4.05;;
1567;SDS011;777;47.156;8.326;2023-03-31T09:04:11;8.15;;;3.95;;
1567;SDS011;777;47.156;8.326;2023-03-31T09:06:49;8.02;;;4.60;;
1567;SDS011;777;47.156;8.326;2023-03-31T09:09:24;7.07;;;3.30;;
1567;SDS011;777;47.156;8.326;2023-03-31T09:12:06;5.38;;;3.10;;
1567;SDS011;777;47.156;8.326;2023-03-31T09:14:40;8.00;;;3.03;;
1567;SDS011;777;47.156;8.326;2023-03-31T09:17:16;6.57;;;2.90;;
1567;SDS011;777;47.156;8.326;2023-03-31T09:19:48;7.32;;;3.30;;
1567;SDS011;777;47.156;8.326;2023-03-31T09:22:21;7.00;;;3.38;;
1567;SDS011;777;47.156;8.326;2023-03-31T09:24:53;7.18;;;4.18;;
1567;SDS011;777;47.156;8.326;2023-03-31T09:27:25;7.90;;;3.95;;
1567;SDS011;777;47.156;8.326;2023-03-31T09:29:57;6.93;;;3.30;;
1567;SDS011;777;47.156;8.326;2023-03-31T09:32:31;6.05;;;3.35;;
1567;SDS011;777;47.156;8.326;2023-03-31T09:34:59;6.45;;;3.90;;
1567;SDS011;777;47.156;8.326;2023-03-31T09:37:29;10.75;;;4.15;;
1567;SDS011;777;47.156;8.326;2023-03-31T09:39:58;7.85;;;4.32;;
1567;SDS011;777;47.156;8.326;2023-03-31T09:42:32;6.50;;;3.97;;
1567;SDS011;777;47.156;8.326;2023-03-31T09:44:59;8.07;;;4.13;;
1567;SDS011;777;47.156;8.326;2023-03-31T09:47:28;6.70;;;3.70;;
1567;SDS011;777;47.156;8.326;2023-03-31T09:50:03;5.53;;;3.70;;
1567;SDS011;777;47.156;8.326;2023-03-31T09:52:31;6.97;;;4.10;;
1567;SDS011;777;47.156;8.326;2023-03-31T09:55:03;5.78;;;3.90;;
1567;SDS011;777;47.156;8.326;2023-03-31T09:57:40;7.25;;;3.60;;
1567;SDS011;777;47.156;8.326;2023-03-31T10:00:13;7.18;;;3.97;;
1567;SDS011;777;47.156;8.326;2023-03-31T10:02:43;7.47;;;3.70;;
1567;SDS011;777;47.156;8.326;2023-03-31T10:05:26;7.00;;;4.47;;
1567;SDS011;777;47.156;8.326;2023-03-31T10:10:50;8.02;;;4.20;;
1567;SDS011;777;47.156;8.326;2023-03-31T10:13:19;6.22;;;3.85;;
1567;SDS011;777;47.156;8.326;2023-03-31T10:15:53;5.65;;;4.38;;
1567;SDS011;777;47.156;8.326;2023-03-31T10:18:30;8.82;;;4.53;;
1567;SDS011;777;47.156;8.326;2023-03-31T10:20:59;8.13;;;4.28;;
1567;SDS011;777;47.156;8.326;2023-03-31T10:23:27;9.52;;;4.10;;
1567;SDS011;777;47.156;8.326;2023-03-31T10:25:56;7.30;;;4.05;;
1567;SDS011;777;47.156;8.326;2023-03-31T10:28:24;7.43;;;3.95;;
1567;SDS011;777;47.156;8.326;2023-03-31T10:30:52;6.82;;;3.85;;
1567;SDS011;777;47.156;8.326;2023-03-31T10:33:23;5.50;;;3.88;;
1567;SDS011;777;47.156;8.326;2023-03-31T10:35:56;7.47;;;4.22;;
1567;SDS011;777;47.156;8.326;2023-03-31T10:38:25;7.03;;;3.70;;
1567;SDS011;777;47.156;8.326;2023-03-31T10:40:55;6.10;;;3.90;;
1567;SDS011;777;47.156;8.326;2023-03-31T10:43:26;7.10;;;3.75;;
1567;SDS011;777;47.156;8.326;2023-03-31T10:45:55;6.60;;;3.85;;
1567;SDS011;777;47.156;8.326;2023-03-31T10:48:26;8.73;;;3.58;;
1567;SDS011;777;47.156;8.326;2023-03-31T10:50:54;6.72;;;2.97;;
1567;SDS011;777;47.156;8.326;2023-03-31T10:53:25;9.98;;;3.50;;
1567;SDS011;777;47.156;8.326;2023-03-31T10:55:55;4.88;;;2.90;;
1567;SDS011;777;47.156;8.326;2023-03-31T10:58:34;5.22;;;3.08;;
1567;SDS011;777;47.156;8.326;2023-03-31T11:01:18;8.95;;;3.10;;
1567;SDS011;777;47.156;8.326;2023-03-31T11:04:06;9.10;;;3.67;;
1567;SDS011;777;47.156;8.326;2023-03-31T11:06:51;6.97;;;3.53;;
1567;SDS011;777;47.156;8.326;2023-03-31T11:09:33;7.80;;;3.35;;
1567;SDS011;777;47.156;8.326;2023-03-31T11:12:12;6.15;;;3.45;;
1567;SDS011;777;47.156;8.326;2023-03-31T11:14:48;8.38;;;3.20;;
1567;SDS011;777;47.156;8.326;2023-03-31T11:17:28;8.40;;;3.90;;
1567;SDS011;777;47.156;8.326;2023-03-31T11:20:07;6.65;;;3.40;;
1567;SDS011;777;47.156;8.326;2023-03-31T11:22:42;7.45;;;3.17;;
1567;SDS011;777;47.156;8.326;2023-03-31T11:25:19;7.05;;;3.22;;
1567;SDS011;777;47.156;8.326;2023-03-31T11:27:56;7.20;;;3.58;;
1567;SDS011;777;47.156;8.326;2023-03-31T11:30:45;6.53;;;3.73;;
1567;SDS011;777;47.156;8.326;2023-03-31T11:33:22;7.80;;;3.00;;
1567;SDS011;777;47.156;8.326;2023-03-31T11:36:08;6.05;;;2.25;;
1567;SDS011;777;47.156;8.326;2023-03-31T11:38:46;5.50;;;2.38;;
1567;SDS011;777;47.156;8.326;2023-03-31T11:41:25;5.53;;;2.28;;
1567;SDS011;777;47.156;8.326;2023-03-31T11:43:58;5.63;;;2.42;;
1567;SDS011;777;47.156;8.326;2023-03-31T11:46:30;3.80;;;2.53;;
1567;SDS011;777;47.156;8.326;2023-03-31T11:49:03;3.35;;;2.10;;
1567;SDS011;777;47.156;8.326;2023-03-31T11:51:37;4.18;;;2.00;;
1567;SDS011;777;47.156;8.326;2023-03-31T11:54:09;4.82;;;2.00;;
1567;SDS011;777;47.156;8.326;2023-03-31T11:59:12;5.18;;;2.20;;
1567;SDS011;777;47.156;8.326;2023-03-31T12:01:41;4.68;;;2.70;;
1567;SDS011;777;47.156;8.326;2023-03-31T12:04:17;4.37;;;1.80;;
1567;SDS011;777;47.156;8.326;2023-03-31T12:06:54;4.60;;;2.00;;
1567;SDS011;777;47.156;8.326;2023-03-31T12:09:29;3.97;;;1.83;;
1567;SDS011;777;47.156;8.326;2023-03-31T12:12:04;3.78;;;2.33;;
1567;SDS011;777;47.156;8.326;2023-03-31T12:14:36;4.22;;;2.08;;
1567;SDS011;777;47.156;8.326;2023-03-31T12:17:08;4.63;;;1.90;;
1567;SDS011;777;47.156;8.326;2023-03-31T12:19:40;3.33;;;2.00;;
1567;SDS011;777;47.156;8.326;2023-03-31T12:22:15;4.40;;;2.30;;
1567;SDS011;777;47.156;8.326;2023-03-31T12:24:45;5.65;;;2.65;;
1567;SDS011;777;47.156;8.326;2023-03-31T12:27:13;6.05;;;2.92;;
1567;SDS011;777;47.156;8.326;2023-03-31T12:29:47;4.80;;;2.78;;
1567;SDS011;777;47.156;8.326;2023-03-31T12:32:20;5.72;;;3.05;;
1567;SDS011;777;47.156;8.326;2023-03-31T12:34:53;6.03;;;2.95;;
1567;SDS011;777;47.156;8.326;2023-03-31T12:37:37;8.27;;;3.03;;
1567;SDS011;777;47.156;8.326;2023-03-31T12:40:45;7.13;;;3.28;;
1567;SDS011;777;47.156;8.326;2023-03-31T12:43:32;7.75;;;2.53;;
1567;SDS011;777;47.156;8.326;2023-03-31T12:51:42;10.15;;;3.67;;
1567;SDS011;777;47.156;8.326;2023-03-31T12:54:28;6.55;;;3.20;;
1567;SDS011;777;47.156;8.326;2023-03-31T12:57:18;7.22;;;3.47;;
1567;SDS011;777;47.156;8.326;2023-03-31T12:59:48;5.20;;;3.33;;
1567;SDS011;777;47.156;8.326;2023-03-31T13:02:49;5.35;;;2.90;;
1567;SDS011;777;47.156;8.326;2023-03-31T13:05:46;7.60;;;3.05;;
1567;SDS011;777;47.156;8.326;2023-03-31T13:11:20;5.35;;;2.33;;
1567;SDS011;777;47.156;8.326;2023-03-31T13:14:00;4.28;;;1.92;;
1567;SDS011;777;47.156;8.326;2023-03-31T13:16:28;4.20;;;1.30;;
1567;SDS011;777;47.156;8.326;2023-03-31T13:18:56;3.47;;;1.50;;
1567;SDS011;777;47.156;8.326;2023-03-31T13:21:24;4.68;;;1.23;;
1567;SDS011;777;47.156;8.326;2023-03-31T13:23:52;4.53;;;0.98;;
1567;SDS011;777;47.156;8.326;2023-03-31T13:29:20;5.75;;;1.30;;
1567;SDS011;777;47.156;8.326;2023-03-31T13:34:53;4.25;;;0.90;;
1567;SDS011;777;47.156;8.326;2023-03-31T13:37:34;3.92;;;1.00;;
1567;SDS011;777;47.156;8.326;2023-03-31T13:40:31;2.60;;;0.60;;
1567;SDS011;777;47.156;8.326;2023-03-31T13:43:21;4.85;;;0.70;;
1567;SDS011;777;47.156;8.326;2023-03-31T13:49:10;2.05;;;0.60;;
1567;SDS011;777;47.156;8.326;2023-03-31T13:52:08;1.55;;;0.47;;
1567;SDS011;777;47.156;8.326;2023-03-31T13:54:48;1.38;;;0.40;;
1567;SDS011;777;47.156;8.326;2023-03-31T13:57:46;1.00;;;0.40;;
1567;SDS011;777;47.156;8.326;2023-03-31T14:00:36;0.98;;;0.40;;
1567;SDS011;777;47.156;8.326;2023-03-31T14:03:16;2.47;;;0.52;;
1567;SDS011;777;47.156;8.326;2023-03-31T14:05:52;2.00;;;0.47;;
1567;SDS011;777;47.156;8.326;2023-03-31T14:08:28;1.17;;;0.30;;
1567;SDS011;777;47.156;8.326;2023-03-31T14:11:14;1.88;;;0.50;;
1567;SDS011;777;47.156;8.326;2023-03-31T14:14:04;1.80;;;0.70;;
1567;SDS011;777;47.156;8.326;2023-03-31T14:16:34;1.30;;;0.60;;
1567;SDS011;777;47.156;8.326;2023-03-31T14:19:09;1.95;;;0.80;;
1567;SDS011;777;47.156;8.326;2023-03-31T14:21:50;1.35;;;0.60;;
1567;SDS011;777;47.156;8.326;2023-03-31T14:24:26;2.05;;;0.60;;
1567;SDS011;777;47.156;8.326;2023-03-31T14:27:02;1.67;;;0.70;;
1567;SDS011;777;47.156;8.326;2023-03-31T14:29:39;1.50;;;0.55;;
1567;SDS011;777;47.156;8.326;2023-03-31T14:32:16;2.50;;;0.55;;
1567;SDS011;777;47.156;8.326;2023-03-31T14:34:55;5.10;;;0.88;;
1567;SDS011;777;47.156;8.326;2023-03-31T14:37:30;3.47;;;0.70;;
1567;SDS011;777;47.156;8.326;2023-03-31T14:39:57;1.60;;;0.63;;
1567;SDS011;777;47.156;8.326;2023-03-31T14:42:28;2.72;;;0.93;;
1567;SDS011;777;47.156;8.326;2023-03-31T14:45:05;2.10;;;0.75;;
1567;SDS011;777;47.156;8.326;2023-03-31T14:47:50;2.45;;;0.70;;
1567;SDS011;777;47.156;8.326;2023-03-31T14:50:19;3.05;;;0.77;;
1567;SDS011;777;47.156;8.326;2023-03-31T14:52:47;2.88;;;1.10;;
1567;SDS011;777;47.156;8.326;2023-03-31T14:55:17;2.65;;;0.93;;
1567;SDS011;777;47.156;8.326;2023-03-31T14:57:50;3.58;;;0.70;;
1567;SDS011;777;47.156;8.326;2023-03-31T15:00:19;5.15;;;0.90;;
1567;SDS011;777;47.156;8.326;2023-03-31T15:02:52;4.40;;;1.45;;
1567;SDS011;777;47.156;8.326;2023-03-31T15:05:22;5.00;;;1.42;;
1567;SDS011;777;47.156;8.326;2023-03-31T15:07:55;4.72;;;1.00;;
1567;SDS011;777;47.156;8.326;2023-03-31T15:10:23;6.03;;;1.00;;
1567;SDS011;777;47.156;8.326;2023-03-31T15:12:55;3.40;;;0.95;;
1567;SDS011;777;47.156;8.326;2023-03-31T15:15:22;2.40;;;1.02;;
1567;SDS011;777;47.156;8.326;2023-03-31T15:17:50;3.53;;;1.10;;
1567;SDS011;777;47.156;8.326;2023-03-31T15:20:23;3.72;;;1.08;;
1567;SDS011;777;47.156;8.326;2023-03-31T15:22:53;3.42;;;1.08;;
1567;SDS011;777;47.156;8.326;2023-03-31T15:25:20;4.65;;;1.10;;
1567;SDS011;777;47.156;8.326;2023-03-31T15:27:52;3.50;;;0.77;;
1567;SDS011;777;47.156;8.326;2023-03-31T15:30:22;2.65;;;0.57;;
1567;SDS011;777;47.156;8.326;2023-03-31T15:32:52;3.13;;;0.50;;
1567;SDS011;777;47.156;8.326;2023-03-31T15:35:22;1.65;;;0.52;;
1567;SDS011;777;47.156;8.326;2023-03-31T15:37:51;1.88;;;0.82;;
1567;SDS011;777;47.156;8.326;2023-03-31T15:40:22;2.50;;;0.60;;
1567;SDS011;777;47.156;8.326;2023-03-31T15:42:52;2.55;;;0.60;;
1567;SDS011;777;47.156;8.326;2023-03-31T15:48:21;2.28;;;0.77;;
1567;SDS011;777;47.156;8.326;2023-03-31T15:50:51;2.63;;;0.43;;
1567;SDS011;777;47.156;8.326;2023-03-31T15:53:28;0.52;;;0.30;;
1567;SDS011;777;47.156;8.326;2023-03-31T15:56:00;1.00;;;0.43;;
1567;SDS011;777;47.156;8.326;2023-03-31T15:58:47;1.17;;;0.40;;
1567;SDS011;777;47.156;8.326;2023-03-31T16:01:21;2.47;;;0.50;;
1567;SDS011;777;47.156;8.326;2023-03-31T16:03:53;1.85;;;0.30;;
1567;SDS011;777;47.156;8.326;2023-03-31T16:06:23;0.85;;;0.30;;
1567;SDS011;777;47.156;8.326;2023-03-31T16:09:00;2.78;;;0.50;;
1567;SDS011;777;47.156;8.326;2023-03-31T16:11:32;1.80;;;0.30;;
1567;SDS011;777;47.156;8.326;2023-03-31T16:14:05;1.80;;;0.30;;
1567;SDS011;777;47.156;8.326;2023-03-31T16:16:35;1.08;;;0.30;;
1567;SDS011;777;47.156;8.326;2023-03-31T16:19:03;1.20;;;0.32;;
1567;SDS011;777;47.156;8.326;2023-03-31T16:21:36;1.88;;;0.60;;
1567;SDS011;777;47.156;8.326;2023-03-31T16:24:06;2.67;;;0.60;;
1567;SDS011;777;47.156;8.326;2023-03-31T16:26:34;1.20;;;0.40;;
1567;SDS011;777;47.156;8.326;2023-03-31T16:29:03;1.70;;;0.40;;
1567;SDS011;777;47.156;8.326;2023-03-31T16:31:31;1.88;;;0.60;;
1567;SDS011;777;47.156;8.326;2023-03-31T16:34:02;1.55;;;0.57;;
1567;SDS011;777;47.156;8.326;2023-03-31T16:36:31;2.22;;;0.98;;
1567;SDS011;777;47.156;8.326;2023-03-31T16:38:59;3.33;;;0.80;;
1567;SDS011;777;47.156;8.326;2023-03-31T16:41:29;2.13;;;0.50;;
1567;SDS011;777;47.156;8.326;2023-03-31T16:43:57;1.73;;;0.60;;
1567;SDS011;777;47.156;8.326;2023-03-31T16:46:24;1.85;;;0.70;;
1567;SDS011;777;47.156;8.326;2023-03-31T16:48:51;3.85;;;0.60;;
1567;SDS011;777;47.156;8.326;2023-03-31T16:51:19;2.10;;;0.70;;